sensor_id;sensor_type;location;lat;lon;timestamp;P1;durP1;ratioP1;P2;durP2;ratioP2
31872;SDS011;22407;42.820;23.374;2024-02-14T01:08:31;10.35;;;4.97;;
31872;SDS011;22407;42.820;23.374;2024-02-14T01:10:57;9.20;;;4.20;;
31872;SDS011;22407;42.820;23.374;2024-02-14T01:13:22;9.95;;;4.90;;
31872;SDS011;22407;42.820;23.374;2024-02-14T01:15:48;14.27;;;6.50;;
31872;SDS011;22407;42.820;23.374;2024-02-14T01:18:13;11.60;;;5.60;;
31872;SDS011;22407;42.820;23.374;2024-02-14T01:20:39;12.40;;;6.37;;
31872;SDS011;22407;42.820;23.374;2024-02-14T01:23:04;11.90;;;6.37;;
31872;SDS011;22407;42.820;23.374;2024-02-14T01:25:30;12.07;;;6.03;;
31872;SDS011;22407;42.820;23.374;2024-02-14T01:27:55;9.83;;;4.97;;
31872;SDS011;22407;42.820;23.374;2024-02-14T01:30:21;10.88;;;5.05;;
31872;SDS011;22407;42.820;23.374;2024-02-14T01:32:46;20.63;;;6.57;;
31872;SDS011;22407;42.820;23.374;2024-02-14T01:35:12;74.27;;;17.37;;
31872;SDS011;22407;42.820;23.374;2024-02-14T01:37:38;18.08;;;6.63;;
31872;SDS011;22407;42.820;23.374;2024-02-14T01:40:04;15.70;;;6.07;;
31872;SDS011;22407;42.820;23.374;2024-02-14T01:42:32;27.77;;;9.57;;
31872;SDS011;22407;42.820;23.374;2024-02-14T01:44:58;28.50;;;10.27;;
31872;SDS011;22407;42.820;23.374;2024-02-14T01:47:23;36.95;;;12.25;;
31872;SDS011;22407;42.820;23.374;2024-02-14T01:49:49;25.63;;;9.13;;
31872;SDS011;22407;42.820;23.374;2024-02-14T01:52:15;14.68;;;6.50;;
31872;SDS011;22407;42.820;23.374;2024-02-14T01:54:41;12.57;;;6.20;;
31872;SDS011;22407;42.820;23.374;2024-02-14T01:57:07;12.35;;;6.20;;
31872;SDS011;22407;42.820;23.374;2024-02-14T01:59:34;15.75;;;7.00;;
31872;SDS011;22407;42.820;23.374;2024-02-14T02:02:00;13.10;;;6.10;;
31872;SDS011;22407;42.820;23.374;2024-02-14T02:04:26;7.67;;;3.93;;
31872;SDS011;22407;42.820;23.374;2024-02-14T02:06:52;8.20;;;3.20;;
31872;SDS011;22407;42.820;23.374;2024-02-14T02:09:21;9.35;;;4.10;;
31872;SDS011;22407;42.820;23.374;2024-02-14T02:11:48;134.18;;;58.03;;
31872;SDS011;22407;42.820;23.374;2024-02-14T02:14:15;69.90;;;36.15;;
31872;SDS011;22407;42.820;23.374;2024-02-14T02:16:41;81.57;;;40.10;;
31872;SDS011;22407;42.820;23.374;2024-02-14T02:19:07;105.97;;;49.77;;
31872;SDS011;22407;42.820;23.374;2024-02-14T02:21:34;94.57;;;26.73;;
31872;SDS011;22407;42.820;23.374;2024-02-14T02:24:01;61.97;;;17.52;;
31872;SDS011;22407;42.820;23.374;2024-02-14T02:26:27;20.13;;;8.07;;
31872;SDS011;22407;42.820;23.374;2024-02-14T02:28:52;26.53;;;9.40;;
31872;SDS011;22407;42.820;23.374;2024-02-14T02:31:19;25.88;;;9.93;;
31872;SDS011;22407;42.820;23.374;2024-02-14T02:33:45;23.95;;;9.10;;
31872;SDS011;22407;42.820;23.374;2024-02-14T02:36:11;11.57;;;5.23;;
31872;SDS011;22407;42.820;23.374;2024-02-14T02:38:36;14.45;;;6.90;;
31872;SDS011;22407;42.820;23.374;2024-02-14T02:41:03;13.40;;;5.63;;
31872;SDS011;22407;42.820;23.374;2024-02-14T02:43:31;7.45;;;3.53;;
31872;SDS011;22407;42.820;23.374;2024-02-14T02:45:58;6.72;;;3.20;;
31872;SDS011;22407;42.820;23.374;2024-02-14T02:48:24;6.22;;;2.67;;
31872;SDS011;22407;42.820;23.374;2024-02-14T02:50:50;5.70;;;2.70;;
31872;SDS011;22407;42.820;23.374;2024-02-14T02:53:16;5.90;;;2.63;;
31872;SDS011;22407;42.820;23.374;2024-02-14T02:55:41;6.20;;;2.83;;
31872;SDS011;22407;42.820;23.374;2024-02-14T02:58:07;7.00;;;2.53;;
31872;SDS011;22407;42.820;23.374;2024-02-14T03:00:33;7.93;;;2.73;;
31872;SDS011;22407;42.820;23.374;2024-02-14T03:02:59;6.07;;;2.90;;
31872;SDS011;22407;42.820;23.374;2024-02-14T03:05:25;6.75;;;2.80;;
31872;SDS011;22407;42.820;23.374;2024-02-14T03:07:50;13.30;;;5.68;;
31872;SDS011;22407;42.820;23.374;2024-02-14T03:10:18;32.33;;;11.03;;
31872;SDS011;22407;42.820;23.374;2024-02-14T03:12:47;14.95;;;6.03;;
31872;SDS011;22407;42.820;23.374;2024-02-14T03:15:13;7.32;;;3.25;;
31872;SDS011;22407;42.820;23.374;2024-02-14T03:17:39;5.97;;;2.90;;
31872;SDS011;22407;42.820;23.374;2024-02-14T03:20:05;6.10;;;2.65;;
31872;SDS011;22407;42.820;23.374;2024-02-14T03:22:35;7.05;;;3.05;;
31872;SDS011;22407;42.820;23.374;2024-02-14T03:25:02;6.60;;;2.78;;
31872;SDS011;22407;42.820;23.374;2024-02-14T03:27:28;6.73;;;3.43;;
31872;SDS011;22407;42.820;23.374;2024-02-14T03:29:54;7.53;;;3.65;;
31872;SDS011;22407;42.820;23.374;2024-02-14T03:32:23;9.13;;;3.88;;
31872;SDS011;22407;42.820;23.374;2024-02-14T03:34:49;9.53;;;3.87;;
31872;SDS011;22407;42.820;23.374;2024-02-14T03:37:14;9.07;;;3.13;;
31872;SDS011;22407;42.820;23.374;2024-02-14T03:39:40;7.47;;;3.10;;
31872;SDS011;22407;42.820;23.374;2024-02-14T03:42:05;7.43;;;3.67;;
31872;SDS011;22407;42.820;23.374;2024-02-14T03:44:32;11.65;;;6.10;;
31872;SDS011;22407;42.820;23.374;2024-02-14T03:46:58;12.75;;;5.28;;
31872;SDS011;22407;42.820;23.374;2024-02-14T03:49:25;37.73;;;11.17;;
31872;SDS011;22407;42.820;23.374;2024-02-14T03:51:51;28.33;;;8.52;;
31872;SDS011;22407;42.820;23.374;2024-02-14T03:54:20;13.70;;;5.55;;
31872;SDS011;22407;42.820;23.374;2024-02-14T03:56:45;11.00;;;4.72;;
31872;SDS011;22407;42.820;23.374;2024-02-14T03:59:11;11.53;;;4.83;;
31872;SDS011;22407;42.820;23.374;2024-02-14T04:01:36;10.00;;;4.63;;
31872;SDS011;22407;42.820;23.374;2024-02-14T04:04:02;9.10;;;4.18;;
31872;SDS011;22407;42.820;23.374;2024-02-14T04:06:27;9.07;;;4.43;;
31872;SDS011;22407;42.820;23.374;2024-02-14T04:08:56;10.55;;;4.57;;
31872;SDS011;22407;42.820;23.374;2024-02-14T04:11:22;9.87;;;4.67;;
31872;SDS011;22407;42.820;23.374;2024-02-14T04:13:48;9.20;;;4.43;;
31872;SDS011;22407;42.820;23.374;2024-02-14T04:16:13;7.80;;;4.07;;
31872;SDS011;22407;42.820;23.374;2024-02-14T04:18:38;8.07;;;4.13;;
31872;SDS011;22407;42.820;23.374;2024-02-14T04:21:07;7.40;;;3.00;;
31872;SDS011;22407;42.820;23.374;2024-02-14T04:23:33;8.40;;;3.27;;
31872;SDS011;22407;42.820;23.374;2024-02-14T04:25:58;7.43;;;3.42;;
31872;SDS011;22407;42.820;23.374;2024-02-14T04:28:24;7.37;;;3.47;;
31872;SDS011;22407;42.820;23.374;2024-02-14T04:30:49;8.17;;;3.63;;
31872;SDS011;22407;42.820;23.374;2024-02-14T04:33:14;7.55;;;3.28;;
31872;SDS011;22407;42.820;23.374;2024-02-14T04:35:40;20.50;;;9.73;;
31872;SDS011;22407;42.820;23.374;2024-02-14T04:38:05;25.00;;;11.27;;
31872;SDS011;22407;42.820;23.374;2024-02-14T04:40:33;10.63;;;5.45;;
31872;SDS011;22407;42.820;23.374;2024-02-14T04:43:00;7.90;;;3.83;;
31872;SDS011;22407;42.820;23.374;2024-02-14T04:45:25;9.25;;;4.10;;
31872;SDS011;22407;42.820;23.374;2024-02-14T04:47:51;7.68;;;3.40;;
31872;SDS011;22407;42.820;23.374;2024-02-14T04:50:17;17.40;;;7.13;;
31872;SDS011;22407;42.820;23.374;2024-02-14T04:52:44;15.05;;;5.00;;
31872;SDS011;22407;42.820;23.374;2024-02-14T04:55:09;10.20;;;4.43;;
31872;SDS011;22407;42.820;23.374;2024-02-14T04:57:35;11.68;;;4.45;;
31872;SDS011;22407;42.820;23.374;2024-02-14T05:00:02;9.77;;;4.57;;
31872;SDS011;22407;42.820;23.374;2024-02-14T05:02:29;8.07;;;3.53;;
31872;SDS011;22407;42.820;23.374;2024-02-14T05:04:55;7.88;;;3.63;;
31872;SDS011;22407;42.820;23.374;2024-02-14T05:07:20;7.47;;;3.43;;
31872;SDS011;22407;42.820;23.374;2024-02-14T05:09:46;9.13;;;4.07;;
31872;SDS011;22407;42.820;23.374;2024-02-14T05:12:13;9.30;;;4.60;;
31872;SDS011;22407;42.820;23.374;2024-02-14T05:14:38;9.37;;;4.40;;
31872;SDS011;22407;42.820;23.374;2024-02-14T05:17:06;20.20;;;10.00;;
31872;SDS011;22407;42.820;23.374;2024-02-14T05:19:32;18.17;;;9.20;;
31872;SDS011;22407;42.820;23.374;2024-02-14T05:21:58;12.17;;;5.90;;
31872;SDS011;22407;42.820;23.374;2024-02-14T05:24:23;9.55;;;4.80;;
31872;SDS011;22407;42.820;23.374;2024-02-14T05:26:52;14.10;;;7.45;;
31872;SDS011;22407;42.820;23.374;2024-02-14T05:29:18;12.47;;;6.33;;
31872;SDS011;22407;42.820;23.374;2024-02-14T05:31:46;29.05;;;10.35;;
31872;SDS011;22407;42.820;23.374;2024-02-14T05:34:13;12.93;;;6.50;;
31872;SDS011;22407;42.820;23.374;2024-02-14T05:36:39;8.90;;;4.57;;
31872;SDS011;22407;42.820;23.374;2024-02-14T05:39:05;9.50;;;4.10;;
31872;SDS011;22407;42.820;23.374;2024-02-14T05:41:33;10.23;;;4.65;;
31872;SDS011;22407;42.820;23.374;2024-02-14T05:43:59;9.33;;;4.87;;
31872;SDS011;22407;42.820;23.374;2024-02-14T05:46:25;11.00;;;5.05;;
31872;SDS011;22407;42.820;23.374;2024-02-14T05:48:51;11.63;;;5.00;;
31872;SDS011;22407;42.820;23.374;2024-02-14T05:51:18;11.73;;;5.40;;
31872;SDS011;22407;42.820;23.374;2024-02-14T05:53:43;11.82;;;5.43;;
31872;SDS011;22407;42.820;23.374;2024-02-14T05:56:09;12.43;;;6.03;;
31872;SDS011;22407;42.820;23.374;2024-02-14T05:58:35;22.77;;;10.05;;
31872;SDS011;22407;42.820;23.374;2024-02-14T06:01:00;35.20;;;17.37;;
31872;SDS011;22407;42.820;23.374;2024-02-14T06:03:26;31.50;;;15.15;;
31872;SDS011;22407;42.820;23.374;2024-02-14T06:05:52;23.80;;;12.68;;
31872;SDS011;22407;42.820;23.374;2024-02-14T06:08:18;16.40;;;8.73;;
31872;SDS011;22407;42.820;23.374;2024-02-14T06:10:43;13.57;;;7.23;;
31872;SDS011;22407;42.820;23.374;2024-02-14T06:13:09;12.45;;;6.20;;
31872;SDS011;22407;42.820;23.374;2024-02-14T06:15:34;11.13;;;5.97;;
31872;SDS011;22407;42.820;23.374;2024-02-14T06:18:00;10.97;;;4.80;;
31872;SDS011;22407;42.820;23.374;2024-02-14T06:20:26;11.65;;;5.93;;
31872;SDS011;22407;42.820;23.374;2024-02-14T06:22:51;16.27;;;7.07;;
31872;SDS011;22407;42.820;23.374;2024-02-14T06:25:19;15.70;;;6.43;;
31872;SDS011;22407;42.820;23.374;2024-02-14T06:27:45;17.33;;;7.33;;
31872;SDS011;22407;42.820;23.374;2024-02-14T06:30:11;17.58;;;7.53;;
31872;SDS011;22407;42.820;23.374;2024-02-14T06:32:37;15.85;;;8.35;;
31872;SDS011;22407;42.820;23.374;2024-02-14T06:35:02;14.33;;;7.70;;
31872;SDS011;22407;42.820;23.374;2024-02-14T06:37:28;15.07;;;7.95;;
31872;SDS011;22407;42.820;23.374;2024-02-14T06:39:54;29.87;;;12.63;;
31872;SDS011;22407;42.820;23.374;2024-02-14T06:42:19;30.87;;;12.07;;
31872;SDS011;22407;42.820;23.374;2024-02-14T06:44:45;38.27;;;15.27;;
31872;SDS011;22407;42.820;23.374;2024-02-14T06:47:11;40.20;;;16.08;;
31872;SDS011;22407;42.820;23.374;2024-02-14T06:49:36;43.25;;;17.38;;
31872;SDS011;22407;42.820;23.374;2024-02-14T06:52:03;30.43;;;15.83;;
31872;SDS011;22407;42.820;23.374;2024-02-14T06:54:28;29.15;;;15.52;;
31872;SDS011;22407;42.820;23.374;2024-02-14T06:56:54;25.97;;;14.50;;
31872;SDS011;22407;42.820;23.374;2024-02-14T06:59:20;26.55;;;12.30;;
31872;SDS011;22407;42.820;23.374;2024-02-14T07:01:45;25.07;;;12.43;;
31872;SDS011;22407;42.820;23.374;2024-02-14T07:04:11;23.85;;;12.60;;
31872;SDS011;22407;42.820;23.374;2024-02-14T07:06:36;20.90;;;10.87;;
31872;SDS011;22407;42.820;23.374;2024-02-14T07:09:02;21.63;;;11.20;;
31872;SDS011;22407;42.820;23.374;2024-02-14T07:11:27;21.58;;;11.15;;
31872;SDS011;22407;42.820;23.374;2024-02-14T07:13:53;20.83;;;10.43;;
31872;SDS011;22407;42.820;23.374;2024-02-14T07:16:18;20.40;;;9.90;;
31872;SDS011;22407;42.820;23.374;2024-02-14T07:18:44;21.92;;;11.35;;
31872;SDS011;22407;42.820;23.374;2024-02-14T07:21:10;24.03;;;12.17;;
31872;SDS011;22407;42.820;23.374;2024-02-14T07:23:35;28.47;;;14.57;;
31872;SDS011;22407;42.820;23.374;2024-02-14T07:26:01;24.52;;;12.88;;
31872;SDS011;22407;42.820;23.374;2024-02-14T07:28:27;22.80;;;11.98;;
31872;SDS011;22407;42.820;23.374;2024-02-14T07:30:53;24.97;;;12.40;;
31872;SDS011;22407;42.820;23.374;2024-02-14T07:33:18;24.83;;;13.00;;
31872;SDS011;22407;42.820;23.374;2024-02-14T07:35:44;21.88;;;11.40;;
31872;SDS011;22407;42.820;23.374;2024-02-14T07:38:09;22.07;;;11.93;;
31872;SDS011;22407;42.820;23.374;2024-02-14T07:40:35;22.97;;;12.33;;
31872;SDS011;22407;42.820;23.374;2024-02-14T07:43:00;22.92;;;12.38;;
31872;SDS011;22407;42.820;23.374;2024-02-14T07:45:27;20.45;;;11.50;;
31872;SDS011;22407;42.820;23.374;2024-02-14T07:47:53;21.33;;;11.37;;
31872;SDS011;22407;42.820;23.374;2024-02-14T07:50:18;22.85;;;12.32;;
31872;SDS011;22407;42.820;23.374;2024-02-14T07:52:44;20.67;;;10.40;;
31872;SDS011;22407;42.820;23.374;2024-02-14T07:55:10;22.15;;;10.65;;
31872;SDS011;22407;42.820;23.374;2024-02-14T07:57:37;19.30;;;10.50;;
31872;SDS011;22407;42.820;23.374;2024-02-14T08:00:07;19.75;;;10.77;;
31872;SDS011;22407;42.820;23.374;2024-02-14T08:02:33;22.17;;;10.38;;
31872;SDS011;22407;42.820;23.374;2024-02-14T08:04:59;19.35;;;11.07;;
31872;SDS011;22407;42.820;23.374;2024-02-14T08:07:25;21.03;;;10.67;;
31872;SDS011;22407;42.820;23.374;2024-02-14T08:09:51;24.10;;;12.88;;
31872;SDS011;22407;42.820;23.374;2024-02-14T08:12:16;21.43;;;11.80;;
31872;SDS011;22407;42.820;23.374;2024-02-14T08:14:42;25.23;;;11.95;;
31872;SDS011;22407;42.820;23.374;2024-02-14T08:17:07;22.27;;;11.80;;
31872;SDS011;22407;42.820;23.374;2024-02-14T08:19:33;23.47;;;12.17;;
31872;SDS011;22407;42.820;23.374;2024-02-14T08:22:00;22.00;;;11.80;;
31872;SDS011;22407;42.820;23.374;2024-02-14T08:24:26;21.13;;;10.77;;
31872;SDS011;22407;42.820;23.374;2024-02-14T08:26:52;20.85;;;10.63;;
31872;SDS011;22407;42.820;23.374;2024-02-14T08:29:18;16.37;;;9.40;;
31872;SDS011;22407;42.820;23.374;2024-02-14T08:31:44;21.02;;;10.85;;
31872;SDS011;22407;42.820;23.374;2024-02-14T08:34:09;16.90;;;8.87;;
31872;SDS011;22407;42.820;23.374;2024-02-14T08:36:35;18.48;;;9.68;;
31872;SDS011;22407;42.820;23.374;2024-02-14T08:39:09;19.25;;;9.63;;
31872;SDS011;22407;42.820;23.374;2024-02-14T08:41:38;18.93;;;9.83;;
31872;SDS011;22407;42.820;23.374;2024-02-14T08:44:08;17.55;;;9.65;;
31872;SDS011;22407;42.820;23.374;2024-02-14T08:46:34;19.20;;;9.80;;
31872;SDS011;22407;42.820;23.374;2024-02-14T08:49:00;25.93;;;15.87;;
31872;SDS011;22407;42.820;23.374;2024-02-14T08:51:33;17.88;;;9.40;;
31872;SDS011;22407;42.820;23.374;2024-02-14T08:54:02;16.27;;;8.88;;
31872;SDS011;22407;42.820;23.374;2024-02-14T08:56:30;19.47;;;10.33;;
31872;SDS011;22407;42.820;23.374;2024-02-14T08:58:59;18.17;;;10.20;;
31872;SDS011;22407;42.820;23.374;2024-02-14T09:01:26;18.75;;;9.77;;
31872;SDS011;22407;42.820;23.374;2024-02-14T09:03:51;17.00;;;9.20;;
31872;SDS011;22407;42.820;23.374;2024-02-14T09:06:17;19.65;;;11.13;;
31872;SDS011;22407;42.820;23.374;2024-02-14T09:08:45;20.50;;;10.45;;
31872;SDS011;22407;42.820;23.374;2024-02-14T09:11:11;21.43;;;11.23;;
31872;SDS011;22407;42.820;23.374;2024-02-14T09:13:37;17.90;;;9.55;;
31872;SDS011;22407;42.820;23.374;2024-02-14T09:16:06;19.17;;;9.95;;
31872;SDS011;22407;42.820;23.374;2024-02-14T09:18:33;19.07;;;10.03;;
31872;SDS011;22407;42.820;23.374;2024-02-14T09:20:58;15.27;;;8.73;;
31872;SDS011;22407;42.820;23.374;2024-02-14T09:23:24;17.23;;;9.00;;
31872;SDS011;22407;42.820;23.374;2024-02-14T09:25:50;15.90;;;8.88;;
31872;SDS011;22407;42.820;23.374;2024-02-14T09:28:16;15.13;;;8.10;;
31872;SDS011;22407;42.820;23.374;2024-02-14T09:30:41;15.18;;;8.52;;
31872;SDS011;22407;42.820;23.374;2024-02-14T09:33:07;14.60;;;8.80;;
31872;SDS011;22407;42.820;23.374;2024-02-14T09:35:33;17.08;;;9.00;;
31872;SDS011;22407;42.820;23.374;2024-02-14T09:38:00;16.70;;;9.27;;
31872;SDS011;22407;42.820;23.374;2024-02-14T09:40:25;19.80;;;10.63;;
31872;SDS011;22407;42.820;23.374;2024-02-14T09:42:55;20.43;;;10.30;;
31872;SDS011;22407;42.820;23.374;2024-02-14T09:45:26;19.80;;;10.57;;
31872;SDS011;22407;42.820;23.374;2024-02-14T09:47:55;18.60;;;10.35;;
31872;SDS011;22407;42.820;23.374;2024-02-14T09:50:22;21.60;;;10.85;;
31872;SDS011;22407;42.820;23.374;2024-02-14T09:52:49;21.63;;;10.87;;
31872;SDS011;22407;42.820;23.374;2024-02-14T09:55:16;20.02;;;10.18;;
31872;SDS011;22407;42.820;23.374;2024-02-14T09:57:42;21.00;;;10.35;;
31872;SDS011;22407;42.820;23.374;2024-02-14T10:00:12;20.23;;;10.02;;
31872;SDS011;22407;42.820;23.374;2024-02-14T10:02:41;20.10;;;10.68;;
31872;SDS011;22407;42.820;23.374;2024-02-14T10:05:07;17.00;;;9.30;;
31872;SDS011;22407;42.820;23.374;2024-02-14T10:07:42;17.42;;;9.27;;
31872;SDS011;22407;42.820;23.374;2024-02-14T10:10:09;16.15;;;9.25;;
31872;SDS011;22407;42.820;23.374;2024-02-14T10:12:35;17.50;;;9.15;;
31872;SDS011;22407;42.820;23.374;2024-02-14T10:15:01;22.08;;;11.70;;
31872;SDS011;22407;42.820;23.374;2024-02-14T10:17:27;17.87;;;9.17;;
31872;SDS011;22407;42.820;23.374;2024-02-14T10:19:56;25.23;;;12.27;;
31872;SDS011;22407;42.820;23.374;2024-02-14T10:22:22;28.35;;;13.98;;
31872;SDS011;22407;42.820;23.374;2024-02-14T10:24:48;29.80;;;15.50;;
31872;SDS011;22407;42.820;23.374;2024-02-14T10:27:15;24.70;;;12.30;;
31872;SDS011;22407;42.820;23.374;2024-02-14T10:29:40;21.27;;;11.48;;
31872;SDS011;22407;42.820;23.374;2024-02-14T10:32:07;23.52;;;12.93;;
31872;SDS011;22407;42.820;23.374;2024-02-14T10:34:33;25.95;;;12.77;;
31872;SDS011;22407;42.820;23.374;2024-02-14T10:36:58;23.67;;;12.20;;
31872;SDS011;22407;42.820;23.374;2024-02-14T10:39:26;22.45;;;11.85;;
31872;SDS011;22407;42.820;23.374;2024-02-14T10:41:52;20.33;;;11.40;;
31872;SDS011;22407;42.820;23.374;2024-02-14T10:44:18;18.57;;;10.03;;
31872;SDS011;22407;42.820;23.374;2024-02-14T10:46:44;19.08;;;10.15;;
31872;SDS011;22407;42.820;23.374;2024-02-14T10:49:11;18.73;;;9.57;;
31872;SDS011;22407;42.820;23.374;2024-02-14T10:51:41;21.30;;;10.45;;
31872;SDS011;22407;42.820;23.374;2024-02-14T10:54:11;21.45;;;10.52;;
31872;SDS011;22407;42.820;23.374;2024-02-14T10:56:41;22.30;;;10.87;;
31872;SDS011;22407;42.820;23.374;2024-02-14T10:59:11;17.33;;;9.55;;
31872;SDS011;22407;42.820;23.374;2024-02-14T11:01:43;13.82;;;7.80;;
31872;SDS011;22407;42.820;23.374;2024-02-14T11:04:09;16.00;;;8.40;;
31872;SDS011;22407;42.820;23.374;2024-02-14T11:06:45;16.70;;;8.67;;
31872;SDS011;22407;42.820;23.374;2024-02-14T11:09:11;22.20;;;11.25;;
31872;SDS011;22407;42.820;23.374;2024-02-14T11:11:40;37.22;;;14.00;;
31872;SDS011;22407;42.820;23.374;2024-02-14T11:14:09;84.18;;;41.38;;
31872;SDS011;22407;42.820;23.374;2024-02-14T11:16:37;90.53;;;31.75;;
31872;SDS011;22407;42.820;23.374;2024-02-14T11:19:10;22.80;;;11.93;;
31872;SDS011;22407;42.820;23.374;2024-02-14T11:21:36;14.50;;;7.95;;
31872;SDS011;22407;42.820;23.374;2024-02-14T11:24:10;15.27;;;7.90;;
31872;SDS011;22407;42.820;23.374;2024-02-14T11:26:46;14.13;;;7.72;;
31872;SDS011;22407;42.820;23.374;2024-02-14T11:29:16;14.90;;;8.00;;
31872;SDS011;22407;42.820;23.374;2024-02-14T11:31:41;15.47;;;7.83;;
31872;SDS011;22407;42.820;23.374;2024-02-14T11:34:08;17.45;;;8.68;;
31872;SDS011;22407;42.820;23.374;2024-02-14T11:36:36;16.48;;;8.55;;
31872;SDS011;22407;42.820;23.374;2024-02-14T11:39:03;17.73;;;9.05;;
31872;SDS011;22407;42.820;23.374;2024-02-14T11:41:30;17.50;;;9.10;;
31872;SDS011;22407;42.820;23.374;2024-02-14T11:44:00;16.27;;;8.60;;
31872;SDS011;22407;42.820;23.374;2024-02-14T11:46:29;17.58;;;9.70;;
31872;SDS011;22407;42.820;23.374;2024-02-14T11:49:02;20.33;;;10.63;;
31872;SDS011;22407;42.820;23.374;2024-02-14T11:51:29;19.13;;;9.60;;
31872;SDS011;22407;42.820;23.374;2024-02-14T11:53:59;16.60;;;8.93;;
31872;SDS011;22407;42.820;23.374;2024-02-14T11:56:30;16.90;;;9.23;;
31872;SDS011;22407;42.820;23.374;2024-02-14T11:58:59;19.23;;;9.50;;
31872;SDS011;22407;42.820;23.374;2024-02-14T12:01:27;18.05;;;9.65;;
31872;SDS011;22407;42.820;23.374;2024-02-14T12:04:01;16.55;;;8.77;;
31872;SDS011;22407;42.820;23.374;2024-02-14T12:06:28;16.73;;;8.73;;
31872;SDS011;22407;42.820;23.374;2024-02-14T12:08:57;15.50;;;8.48;;
31872;SDS011;22407;42.820;23.374;2024-02-14T12:11:26;15.48;;;8.88;;
31872;SDS011;22407;42.820;23.374;2024-02-14T12:13:53;16.63;;;8.38;;
31872;SDS011;22407;42.820;23.374;2024-02-14T12:16:21;16.37;;;8.90;;
31872;SDS011;22407;42.820;23.374;2024-02-14T12:18:47;17.65;;;8.82;;
31872;SDS011;22407;42.820;23.374;2024-02-14T12:21:13;17.75;;;8.68;;
31872;SDS011;22407;42.820;23.374;2024-02-14T12:23:39;15.63;;;8.00;;
31872;SDS011;22407;42.820;23.374;2024-02-14T12:26:04;18.30;;;9.63;;
31872;SDS011;22407;42.820;23.374;2024-02-14T12:28:30;17.97;;;10.23;;
31872;SDS011;22407;42.820;23.374;2024-02-14T12:30:56;16.80;;;9.15;;
31872;SDS011;22407;42.820;23.374;2024-02-14T12:33:26;18.92;;;9.02;;
31872;SDS011;22407;42.820;23.374;2024-02-14T12:35:53;15.07;;;7.97;;
31872;SDS011;22407;42.820;23.374;2024-02-14T12:38:20;16.20;;;8.25;;
31872;SDS011;22407;42.820;23.374;2024-02-14T12:40:48;20.10;;;9.88;;
31872;SDS011;22407;42.820;23.374;2024-02-14T12:43:14;17.67;;;9.43;;
31872;SDS011;22407;42.820;23.374;2024-02-14T12:45:43;16.85;;;8.82;;
31872;SDS011;22407;42.820;23.374;2024-02-14T12:48:09;16.03;;;8.70;;
31872;SDS011;22407;42.820;23.374;2024-02-14T12:50:37;16.30;;;8.43;;
31872;SDS011;22407;42.820;23.374;2024-02-14T12:53:12;16.85;;;8.10;;
31872;SDS011;22407;42.820;23.374;2024-02-14T12:55:37;14.70;;;7.97;;
31872;SDS011;22407;42.820;23.374;2024-02-14T12:58:03;14.70;;;8.23;;
31872;SDS011;22407;42.820;23.374;2024-02-14T13:00:29;15.00;;;7.82;;
31872;SDS011;22407;42.820;23.374;2024-02-14T13:02:56;15.75;;;7.97;;
31872;SDS011;22407;42.820;23.374;2024-02-14T13:05:23;16.13;;;8.43;;
31872;SDS011;22407;42.820;23.374;2024-02-14T13:07:50;23.00;;;10.73;;
31872;SDS011;22407;42.820;23.374;2024-02-14T13:10:16;16.05;;;7.90;;
31872;SDS011;22407;42.820;23.374;2024-02-14T13:12:41;17.53;;;8.93;;
31872;SDS011;22407;42.820;23.374;2024-02-14T13:15:08;18.85;;;10.57;;
31872;SDS011;22407;42.820;23.374;2024-02-14T13:17:34;14.83;;;8.00;;
31872;SDS011;22407;42.820;23.374;2024-02-14T13:20:00;31.90;;;12.02;;
31872;SDS011;22407;42.820;23.374;2024-02-14T13:22:26;42.35;;;16.55;;
31872;SDS011;22407;42.820;23.374;2024-02-14T13:24:52;16.43;;;8.77;;
31872;SDS011;22407;42.820;23.374;2024-02-14T13:27:18;12.90;;;7.10;;
31872;SDS011;22407;42.820;23.374;2024-02-14T13:29:46;12.02;;;6.05;;
31872;SDS011;22407;42.820;23.374;2024-02-14T13:32:12;13.68;;;6.97;;
31872;SDS011;22407;42.820;23.374;2024-02-14T13:34:38;13.87;;;7.80;;
31872;SDS011;22407;42.820;23.374;2024-02-14T13:37:03;13.87;;;7.40;;
31872;SDS011;22407;42.820;23.374;2024-02-14T13:39:29;12.68;;;7.10;;
31872;SDS011;22407;42.820;23.374;2024-02-14T13:41:54;13.23;;;6.97;;
31872;SDS011;22407;42.820;23.374;2024-02-14T13:44:23;15.18;;;7.78;;
31872;SDS011;22407;42.820;23.374;2024-02-14T13:46:49;13.32;;;6.43;;
31872;SDS011;22407;42.820;23.374;2024-02-14T13:49:18;13.88;;;6.93;;
31872;SDS011;22407;42.820;23.374;2024-02-14T13:51:50;13.40;;;6.50;;
31872;SDS011;22407;42.820;23.374;2024-02-14T13:54:23;17.60;;;7.18;;
31872;SDS011;22407;42.820;23.374;2024-02-14T13:56:49;14.65;;;7.22;;
31872;SDS011;22407;42.820;23.374;2024-02-14T13:59:15;13.30;;;6.72;;
31872;SDS011;22407;42.820;23.374;2024-02-14T14:01:41;15.20;;;6.50;;
31872;SDS011;22407;42.820;23.374;2024-02-14T14:04:07;10.90;;;5.57;;
31872;SDS011;22407;42.820;23.374;2024-02-14T14:06:33;10.48;;;6.10;;
31872;SDS011;22407;42.820;23.374;2024-02-14T14:08:59;10.55;;;5.78;;
31872;SDS011;22407;42.820;23.374;2024-02-14T14:11:27;12.07;;;5.60;;
31872;SDS011;22407;42.820;23.374;2024-02-14T14:13:53;24.48;;;10.18;;
31872;SDS011;22407;42.820;23.374;2024-02-14T14:16:18;15.10;;;7.77;;
31872;SDS011;22407;42.820;23.374;2024-02-14T14:18:46;19.48;;;9.27;;
31872;SDS011;22407;42.820;23.374;2024-02-14T14:21:13;19.35;;;9.43;;
31872;SDS011;22407;42.820;23.374;2024-02-14T14:23:40;27.27;;;12.13;;
31872;SDS011;22407;42.820;23.374;2024-02-14T14:26:06;14.48;;;7.10;;
31872;SDS011;22407;42.820;23.374;2024-02-14T14:28:32;12.53;;;6.47;;
31872;SDS011;22407;42.820;23.374;2024-02-14T14:30:57;20.25;;;8.55;;
31872;SDS011;22407;42.820;23.374;2024-02-14T14:33:24;16.40;;;6.80;;
31872;SDS011;22407;42.820;23.374;2024-02-14T14:35:50;14.07;;;7.03;;
31872;SDS011;22407;42.820;23.374;2024-02-14T14:38:17;14.95;;;7.30;;
31872;SDS011;22407;42.820;23.374;2024-02-14T14:40:43;12.80;;;6.25;;
31872;SDS011;22407;42.820;23.374;2024-02-14T14:43:11;11.90;;;5.77;;
31872;SDS011;22407;42.820;23.374;2024-02-14T14:45:37;11.32;;;5.68;;
31872;SDS011;22407;42.820;23.374;2024-02-14T14:48:03;12.00;;;6.43;;
31872;SDS011;22407;42.820;23.374;2024-02-14T14:50:33;12.50;;;6.40;;
31872;SDS011;22407;42.820;23.374;2024-02-14T14:52:58;11.53;;;5.43;;
31872;SDS011;22407;42.820;23.374;2024-02-14T14:55:25;10.27;;;5.00;;
31872;SDS011;22407;42.820;23.374;2024-02-14T14:57:52;11.68;;;5.13;;
31872;SDS011;22407;42.820;23.374;2024-02-14T15:00:17;10.80;;;5.45;;
31872;SDS011;22407;42.820;23.374;2024-02-14T15:02:43;15.03;;;6.20;;
31872;SDS011;22407;42.820;23.374;2024-02-14T15:05:10;29.02;;;11.95;;
31872;SDS011;22407;42.820;23.374;2024-02-14T15:07:36;22.15;;;10.35;;
31872;SDS011;22407;42.820;23.374;2024-02-14T15:10:03;17.33;;;8.67;;
31872;SDS011;22407;42.820;23.374;2024-02-14T15:12:29;16.13;;;8.02;;
31872;SDS011;22407;42.820;23.374;2024-02-14T15:14:55;17.58;;;8.13;;
31872;SDS011;22407;42.820;23.374;2024-02-14T15:17:21;15.35;;;7.40;;
31872;SDS011;22407;42.820;23.374;2024-02-14T15:19:48;23.88;;;11.45;;
31872;SDS011;22407;42.820;23.374;2024-02-14T15:22:14;20.67;;;10.43;;